sensor_id;sensor_type;location;lat;lon;timestamp;temperature;humidity
40287;DHT22;25998;46.604;13.610;2023-02-08T00:00:31;-4.50;92.30
40287;DHT22;25998;46.604;13.610;2023-02-08T00:03:41;-4.50;92.30
40287;DHT22;25998;46.604;13.610;2023-02-08T00:06:52;-4.50;92.20
40287;DHT22;25998;46.604;13.610;2023-02-08T00:10:03;-4.50;92.00
40287;DHT22;25998;46.604;13.610;2023-02-08T00:13:16;-4.60;92.20
40287;DHT22;25998;46.604;13.610;2023-02-08T00:16:27;-4.70;92.50
40287;DHT22;25998;46.604;13.610;2023-02-08T00:19:37;-4.70;92.60
40287;DHT22;25998;46.604;13.610;2023-02-08T00:22:48;-4.70;92.40
40287;DHT22;25998;46.604;13.610;2023-02-08T00:25:59;-4.60;92.70
40287;DHT22;25998;46.604;13.610;2023-02-08T00:29:10;-4.60;92.10
40287;DHT22;25998;46.604;13.610;2023-02-08T00:32:21;-4.60;92.50
40287;DHT22;25998;46.604;13.610;2023-02-08T00:35:32;-4.50;92.40
40287;DHT22;25998;46.604;13.610;2023-02-08T00:38:43;-4.30;91.90
40287;DHT22;25998;46.604;13.610;2023-02-08T00:41:53;-4.60;92.00
40287;DHT22;25998;46.604;13.610;2023-02-08T00:45:04;-4.60;92.00
40287;DHT22;25998;46.604;13.610;2023-02-08T00:48:15;-4.60;92.00
40287;DHT22;25998;46.604;13.610;2023-02-08T00:51:26;-4.70;92.10
40287;DHT22;25998;46.604;13.610;2023-02-08T00:54:37;-4.90;92.00
40287;DHT22;25998;46.604;13.610;2023-02-08T00:57:48;-5.00;92.30
40287;DHT22;25998;46.604;13.610;2023-02-08T01:00:58;-5.00;92.60
40287;DHT22;25998;46.604;13.610;2023-02-08T01:04:09;-5.10;92.80
40287;DHT22;25998;46.604;13.610;2023-02-08T01:07:20;-5.10;92.70
40287;DHT22;25998;46.604;13.610;2023-02-08T01:10:31;-5.10;92.80
40287;DHT22;25998;46.604;13.610;2023-02-08T01:13:42;-5.10;92.90
40287;DHT22;25998;46.604;13.610;2023-02-08T01:16:54;-5.10;93.00
40287;DHT22;25998;46.604;13.610;2023-02-08T01:20:05;-5.10;92.70
40287;DHT22;25998;46.604;13.610;2023-02-08T01:23:16;-5.20;93.00
40287;DHT22;25998;46.604;13.610;2023-02-08T01:26:27;-5.20;92.70
40287;DHT22;25998;46.604;13.610;2023-02-08T01:29:37;-5.10;92.60
40287;DHT22;25998;46.604;13.610;2023-02-08T01:32:48;-5.10;92.50
40287;DHT22;25998;46.604;13.610;2023-02-08T01:35:59;-5.20;92.50
40287;DHT22;25998;46.604;13.610;2023-02-08T01:39:11;-5.20;92.60
40287;DHT22;25998;46.604;13.610;2023-02-08T01:42:22;-5.30;92.60
40287;DHT22;25998;46.604;13.610;2023-02-08T01:45:33;-5.40;92.80
40287;DHT22;25998;46.604;13.610;2023-02-08T01:48:43;-5.30;93.20
40287;DHT22;25998;46.604;13.610;2023-02-08T01:52:17;-5.30;93.40
40287;DHT22;25998;46.604;13.610;2023-02-08T01:55:36;-5.30;93.00
40287;DHT22;25998;46.604;13.610;2023-02-08T01:58:50;-5.40;93.20
40287;DHT22;25998;46.604;13.610;2023-02-08T02:02:02;-5.40;92.80
40287;DHT22;25998;46.604;13.610;2023-02-08T02:05:15;-5.30;92.40
40287;DHT22;25998;46.604;13.610;2023-02-08T02:08:26;-5.20;92.90
40287;DHT22;25998;46.604;13.610;2023-02-08T02:11:37;-4.80;92.60
40287;DHT22;25998;46.604;13.610;2023-02-08T02:14:47;-5.10;92.40
40287;DHT22;25998;46.604;13.610;2023-02-08T02:18:00;-5.30;92.60
40287;DHT22;25998;46.604;13.610;2023-02-08T02:35:44;-5.70;92.90
40287;DHT22;25998;46.604;13.610;2023-02-08T02:39:01;-5.80;93.20
40287;DHT22;25998;46.604;13.610;2023-02-08T02:46:12;-5.80;93.00
40287;DHT22;25998;46.604;13.610;2023-02-08T02:49:40;-5.80;93.00
40287;DHT22;25998;46.604;13.610;2023-02-08T02:53:23;-5.70;93.10
40287;DHT22;25998;46.604;13.610;2023-02-08T02:56:34;-5.50;93.30
40287;DHT22;25998;46.604;13.610;2023-02-08T02:59:46;-5.30;92.80
40287;DHT22;25998;46.604;13.610;2023-02-08T03:02:57;-5.10;92.50
40287;DHT22;25998;46.604;13.610;2023-02-08T03:06:18;-5.20;92.10
40287;DHT22;25998;46.604;13.610;2023-02-08T03:13:26;-5.70;92.60
40287;DHT22;25998;46.604;13.610;2023-02-08T03:20:17;-5.90;92.90
40287;DHT22;25998;46.604;13.610;2023-02-08T03:24:30;-5.80;93.40
40287;DHT22;25998;46.604;13.610;2023-02-08T03:31:37;-6.00;93.00
40287;DHT22;25998;46.604;13.610;2023-02-08T03:34:50;-6.10;93.30
40287;DHT22;25998;46.604;13.610;2023-02-08T03:38:24;-6.10;93.50
40287;DHT22;25998;46.604;13.610;2023-02-08T03:41:39;-6.10;93.70
40287;DHT22;25998;46.604;13.610;2023-02-08T03:44:59;-6.10;93.60
40287;DHT22;25998;46.604;13.610;2023-02-08T03:48:12;-6.10;93.40
40287;DHT22;25998;46.604;13.610;2023-02-08T03:51:27;-6.10;93.40
40287;DHT22;25998;46.604;13.610;2023-02-08T03:54:53;-6.20;93.40
40287;DHT22;25998;46.604;13.610;2023-02-08T03:58:10;-6.20;93.40
40287;DHT22;25998;46.604;13.610;2023-02-08T04:01:37;-6.20;93.30
40287;DHT22;25998;46.604;13.610;2023-02-08T04:04:51;-6.10;93.40
40287;DHT22;25998;46.604;13.610;2023-02-08T04:08:03;-6.20;93.60
40287;DHT22;25998;46.604;13.610;2023-02-08T04:11:14;-6.20;93.50
40287;DHT22;25998;46.604;13.610;2023-02-08T04:14:25;-6.20;93.60
40287;DHT22;25998;46.604;13.610;2023-02-08T04:17:35;-6.20;93.40
40287;DHT22;25998;46.604;13.610;2023-02-08T04:20:46;-6.20;93.70
40287;DHT22;25998;46.604;13.610;2023-02-08T04:23:57;-6.20;93.50
40287;DHT22;25998;46.604;13.610;2023-02-08T04:27:08;-6.20;93.60
40287;DHT22;25998;46.604;13.610;2023-02-08T04:30:19;-6.30;93.70
40287;DHT22;25998;46.604;13.610;2023-02-08T04:33:29;-6.30;93.70
40287;DHT22;25998;46.604;13.610;2023-02-08T04:36:40;-6.30;93.70
40287;DHT22;25998;46.604;13.610;2023-02-08T04:39:51;-6.40;93.60
40287;DHT22;25998;46.604;13.610;2023-02-08T04:43:02;-6.40;93.60
40287;DHT22;25998;46.604;13.610;2023-02-08T04:46:12;-6.40;93.70
40287;DHT22;25998;46.604;13.610;2023-02-08T04:49:23;-6.30;93.50
40287;DHT22;25998;46.604;13.610;2023-02-08T04:52:34;-6.10;93.30
40287;DHT22;25998;46.604;13.610;2023-02-08T04:55:45;-6.20;93.00
40287;DHT22;25998;46.604;13.610;2023-02-08T04:58:56;-6.30;93.10
40287;DHT22;25998;46.604;13.610;2023-02-08T05:02:07;-6.40;93.50
40287;DHT22;25998;46.604;13.610;2023-02-08T05:05:18;-6.40;93.90
40287;DHT22;25998;46.604;13.610;2023-02-08T05:08:28;-6.40;93.70
40287;DHT22;25998;46.604;13.610;2023-02-08T05:11:39;-6.50;93.90
40287;DHT22;25998;46.604;13.610;2023-02-08T05:14:51;-6.50;94.30
40287;DHT22;25998;46.604;13.610;2023-02-08T05:18:02;-6.50;93.80
40287;DHT22;25998;46.604;13.610;2023-02-08T05:21:13;-6.40;93.70
40287;DHT22;25998;46.604;13.610;2023-02-08T05:24:24;-6.40;93.40
40287;DHT22;25998;46.604;13.610;2023-02-08T05:27:35;-6.60;93.70
40287;DHT22;25998;46.604;13.610;2023-02-08T05:30:46;-6.70;93.70
40287;DHT22;25998;46.604;13.610;2023-02-08T05:33:57;-6.70;93.90
40287;DHT22;25998;46.604;13.610;2023-02-08T05:37:07;-6.70;93.80
40287;DHT22;25998;46.604;13.610;2023-02-08T05:40:18;-6.70;93.90
40287;DHT22;25998;46.604;13.610;2023-02-08T05:43:29;-6.70;93.60
40287;DHT22;25998;46.604;13.610;2023-02-08T05:46:40;-6.70;93.40
40287;DHT22;25998;46.604;13.610;2023-02-08T05:49:51;-6.80;93.80
40287;DHT22;25998;46.604;13.610;2023-02-08T05:53:01;-6.70;93.70
40287;DHT22;25998;46.604;13.610;2023-02-08T05:56:12;-6.80;93.60
40287;DHT22;25998;46.604;13.610;2023-02-08T05:59:23;-6.80;93.90
40287;DHT22;25998;46.604;13.610;2023-02-08T06:02:34;-6.80;93.60
40287;DHT22;25998;46.604;13.610;2023-02-08T06:05:45;-6.80;93.70
40287;DHT22;25998;46.604;13.610;2023-02-08T06:08:56;-6.70;94.30
40287;DHT22;25998;46.604;13.610;2023-02-08T06:12:06;-6.80;94.00
40287;DHT22;25998;46.604;13.610;2023-02-08T06:15:17;-6.90;94.20
40287;DHT22;25998;46.604;13.610;2023-02-08T06:18:28;-6.90;94.20
40287;DHT22;25998;46.604;13.610;2023-02-08T06:21:39;-7.00;94.50
40287;DHT22;25998;46.604;13.610;2023-02-08T06:24:50;-7.00;94.70
40287;DHT22;25998;46.604;13.610;2023-02-08T06:28:01;-6.90;94.80
40287;DHT22;25998;46.604;13.610;2023-02-08T06:31:12;-6.90;94.30
40287;DHT22;25998;46.604;13.610;2023-02-08T06:34:23;-6.80;94.10
40287;DHT22;25998;46.604;13.610;2023-02-08T06:37:34;-6.80;94.40
40287;DHT22;25998;46.604;13.610;2023-02-08T06:40:48;-6.80;94.50
40287;DHT22;25998;46.604;13.610;2023-02-08T06:43:59;-6.60;94.40
40287;DHT22;25998;46.604;13.610;2023-02-08T06:47:11;-6.60;94.00
40287;DHT22;25998;46.604;13.610;2023-02-08T06:50:22;-6.70;93.70
40287;DHT22;25998;46.604;13.610;2023-02-08T06:53:33;-6.50;94.40
40287;DHT22;25998;46.604;13.610;2023-02-08T06:56:44;-6.20;94.10
40287;DHT22;25998;46.604;13.610;2023-02-08T06:59:55;-5.90;93.60
40287;DHT22;25998;46.604;13.610;2023-02-08T07:03:05;-5.60;93.50
40287;DHT22;25998;46.604;13.610;2023-02-08T07:06:18;-5.70;92.50
40287;DHT22;25998;46.604;13.610;2023-02-08T07:09:29;-5.50;93.00
40287;DHT22;25998;46.604;13.610;2023-02-08T07:12:40;-5.30;92.90
40287;DHT22;25998;46.604;13.610;2023-02-08T07:15:50;-5.60;92.30
40287;DHT22;25998;46.604;13.610;2023-02-08T07:19:01;-5.50;93.10
40287;DHT22;25998;46.604;13.610;2023-02-08T07:22:12;-5.50;92.80
40287;DHT22;25998;46.604;13.610;2023-02-08T07:25:23;-5.50;92.70
40287;DHT22;25998;46.604;13.610;2023-02-08T07:28:34;-5.40;93.10
40287;DHT22;25998;46.604;13.610;2023-02-08T07:31:45;-5.30;93.30
40287;DHT22;25998;46.604;13.610;2023-02-08T07:34:56;-5.10;93.10
40287;DHT22;25998;46.604;13.610;2023-02-08T07:38:07;-5.20;93.20
40287;DHT22;25998;46.604;13.610;2023-02-08T07:41:17;-5.30;93.60
40287;DHT22;25998;46.604;13.610;2023-02-08T07:44:28;-5.40;93.90
40287;DHT22;25998;46.604;13.610;2023-02-08T07:47:39;-5.70;94.20
40287;DHT22;25998;46.604;13.610;2023-02-08T07:50:50;-6.10;94.90
40287;DHT22;25998;46.604;13.610;2023-02-08T07:54:01;-6.30;95.50
40287;DHT22;25998;46.604;13.610;2023-02-08T07:57:12;-6.40;96.10
40287;DHT22;25998;46.604;13.610;2023-02-08T08:00:30;-6.50;96.20
40287;DHT22;25998;46.604;13.610;2023-02-08T08:03:40;-6.60;96.50
40287;DHT22;25998;46.604;13.610;2023-02-08T08:06:51;-6.60;96.80
40287;DHT22;25998;46.604;13.610;2023-02-08T08:10:03;-6.60;97.00
40287;DHT22;25998;46.604;13.610;2023-02-08T08:13:14;-6.70;97.20
40287;DHT22;25998;46.604;13.610;2023-02-08T08:16:25;-6.60;97.30
40287;DHT22;25998;46.604;13.610;2023-02-08T08:19:36;-6.60;97.60
40287;DHT22;25998;46.604;13.610;2023-02-08T08:22:46;-6.40;97.80
40287;DHT22;25998;46.604;13.610;2023-02-08T08:25:58;-6.40;97.60
40287;DHT22;25998;46.604;13.610;2023-02-08T08:29:09;-6.30;97.60
40287;DHT22;25998;46.604;13.610;2023-02-08T08:32:20;-6.20;97.70
40287;DHT22;25998;46.604;13.610;2023-02-08T08:35:30;-6.20;97.90
40287;DHT22;25998;46.604;13.610;2023-02-08T08:38:41;-6.20;98.30
40287;DHT22;25998;46.604;13.610;2023-02-08T08:41:55;-6.30;98.60
40287;DHT22;25998;46.604;13.610;2023-02-08T08:45:07;-6.40;99.10
40287;DHT22;25998;46.604;13.610;2023-02-08T08:48:18;-6.20;99.00
40287;DHT22;25998;46.604;13.610;2023-02-08T08:51:29;-5.90;98.80
40287;DHT22;25998;46.604;13.610;2023-02-08T08:54:44;-5.30;98.40
40287;DHT22;25998;46.604;13.610;2023-02-08T08:57:55;-4.80;97.50
40287;DHT22;25998;46.604;13.610;2023-02-08T09:01:06;-4.30;96.50
40287;DHT22;25998;46.604;13.610;2023-02-08T09:04:16;-4.00;95.90
40287;DHT22;25998;46.604;13.610;2023-02-08T09:07:27;-3.40;95.30
40287;DHT22;25998;46.604;13.610;2023-02-08T09:10:38;-3.00;94.10
40287;DHT22;25998;46.604;13.610;2023-02-08T09:13:50;-2.90;93.40
40287;DHT22;25998;46.604;13.610;2023-02-08T09:17:04;-2.70;92.80
40287;DHT22;25998;46.604;13.610;2023-02-08T09:20:14;-2.50;92.70
40287;DHT22;25998;46.604;13.610;2023-02-08T09:23:25;-2.10;92.60
40287;DHT22;25998;46.604;13.610;2023-02-08T09:26:37;-2.10;92.50
40287;DHT22;25998;46.604;13.610;2023-02-08T09:29:48;-2.00;92.60
40287;DHT22;25998;46.604;13.610;2023-02-08T09:32:59;-1.60;91.90
40287;DHT22;25998;46.604;13.610;2023-02-08T09:36:10;-1.70;91.50
40287;DHT22;25998;46.604;13.610;2023-02-08T09:39:23;-1.60;91.90
40287;DHT22;25998;46.604;13.610;2023-02-08T09:42:42;-1.30;91.30
40287;DHT22;25998;46.604;13.610;2023-02-08T09:46:04;-1.10;91.20
40287;DHT22;25998;46.604;13.610;2023-02-08T09:49:22;-1.00;90.70
40287;DHT22;25998;46.604;13.610;2023-02-08T09:52:40;-0.80;90.60
40287;DHT22;25998;46.604;13.610;2023-02-08T09:55:55;-0.40;90.60
40287;DHT22;25998;46.604;13.610;2023-02-08T09:59:36;-0.50;90.10
40287;DHT22;25998;46.604;13.610;2023-02-08T10:02:52;-1.40;90.80
40287;DHT22;25998;46.604;13.610;2023-02-08T10:06:06;-1.90;91.80
40287;DHT22;25998;46.604;13.610;2023-02-08T10:09:21;-1.90;92.00
40287;DHT22;25998;46.604;13.610;2023-02-08T10:12:47;-1.50;91.80
40287;DHT22;25998;46.604;13.610;2023-02-08T10:33:17;-2.10;93.10
40287;DHT22;25998;46.604;13.610;2023-02-08T10:36:34;-2.30;93.10
40287;DHT22;25998;46.604;13.610;2023-02-08T10:39:52;-2.20;93.40
40287;DHT22;25998;46.604;13.610;2023-02-08T10:43:25;-1.80;92.80
40287;DHT22;25998;46.604;13.610;2023-02-08T10:46:46;-1.80;92.80
40287;DHT22;25998;46.604;13.610;2023-02-08T10:50:18;-1.60;92.70
40287;DHT22;25998;46.604;13.610;2023-02-08T10:53:30;-1.40;92.70
40287;DHT22;25998;46.604;13.610;2023-02-08T10:56:54;-1.60;92.00
40287;DHT22;25998;46.604;13.610;2023-02-08T11:00:10;-1.90;92.80
40287;DHT22;25998;46.604;13.610;2023-02-08T11:03:25;-2.00;92.90
40287;DHT22;25998;46.604;13.610;2023-02-08T11:06:38;-1.90;92.80
40287;DHT22;25998;46.604;13.610;2023-02-08T11:09:49;-1.80;92.40
40287;DHT22;25998;46.604;13.610;2023-02-08T11:13:18;-1.50;92.40
40287;DHT22;25998;46.604;13.610;2023-02-08T11:16:30;-1.30;91.80
40287;DHT22;25998;46.604;13.610;2023-02-08T11:19:41;-1.50;91.90
40287;DHT22;25998;46.604;13.610;2023-02-08T11:22:56;-1.50;92.60
40287;DHT22;25998;46.604;13.610;2023-02-08T11:26:38;-1.30;93.00
40287;DHT22;25998;46.604;13.610;2023-02-08T11:30:16;-0.90;92.80
40287;DHT22;25998;46.604;13.610;2023-02-08T11:33:30;-0.80;92.20
40287;DHT22;25998;46.604;13.610;2023-02-08T11:36:45;-0.80;92.30
40287;DHT22;25998;46.604;13.610;2023-02-08T11:39:58;-0.80;91.80
40287;DHT22;25998;46.604;13.610;2023-02-08T11:43:27;-0.70;91.80
40287;DHT22;25998;46.604;13.610;2023-02-08T11:46:39;-0.70;91.50
40287;DHT22;25998;46.604;13.610;2023-02-08T11:50:04;-0.60;91.20
40287;DHT22;25998;46.604;13.610;2023-02-08T11:53:33;-0.50;90.70
40287;DHT22;25998;46.604;13.610;2023-02-08T11:57:01;-0.50;90.60
40287;DHT22;25998;46.604;13.610;2023-02-08T12:00:22;-0.50;90.50
40287;DHT22;25998;46.604;13.610;2023-02-08T12:03:39;-0.50;91.00
40287;DHT22;25998;46.604;13.610;2023-02-08T12:07:15;-0.40;90.90
40287;DHT22;25998;46.604;13.610;2023-02-08T12:21:15;-0.50;89.80
40287;DHT22;25998;46.604;13.610;2023-02-08T12:28:09;-0.40;90.70
40287;DHT22;25998;46.604;13.610;2023-02-08T12:42:26;-0.60;88.80
40287;DHT22;25998;46.604;13.610;2023-02-08T12:52:55;-0.80;88.90
40287;DHT22;25998;46.604;13.610;2023-02-08T12:56:15;-0.90;89.10
40287;DHT22;25998;46.604;13.610;2023-02-08T12:59:43;-0.80;90.20
40287;DHT22;25998;46.604;13.610;2023-02-08T13:06:30;-0.70;88.70
40287;DHT22;25998;46.604;13.610;2023-02-08T13:09:51;-0.90;88.70
40287;DHT22;25998;46.604;13.610;2023-02-08T13:13:25;-1.00;89.70
40287;DHT22;25998;46.604;13.610;2023-02-08T13:16:45;-1.30;89.80
40287;DHT22;25998;46.604;13.610;2023-02-08T13:20:02;-1.30;90.10
40287;DHT22;25998;46.604;13.610;2023-02-08T13:26:37;-1.10;89.70
40287;DHT22;25998;46.604;13.610;2023-02-08T13:29:50;-1.10;90.40
40287;DHT22;25998;46.604;13.610;2023-02-08T13:33:14;-1.20;90.40
40287;DHT22;25998;46.604;13.610;2023-02-08T13:36:30;-0.90;90.50
40287;DHT22;25998;46.604;13.610;2023-02-08T13:39:43;-0.50;89.80
40287;DHT22;25998;46.604;13.610;2023-02-08T13:43:17;-0.10;88.30
40287;DHT22;25998;46.604;13.610;2023-02-08T13:46:48;0.00;88.50
40287;DHT22;25998;46.604;13.610;2023-02-08T13:50:02;0.20;88.20
40287;DHT22;25998;46.604;13.610;2023-02-08T13:53:18;0.40;88.60
40287;DHT22;25998;46.604;13.610;2023-02-08T13:56:50;0.40;87.30
40287;DHT22;25998;46.604;13.610;2023-02-08T14:00:21;0.30;86.70
40287;DHT22;25998;46.604;13.610;2023-02-08T14:03:34;0.10;86.80
40287;DHT22;25998;46.604;13.610;2023-02-08T14:06:48;-0.10;87.30
40287;DHT22;25998;46.604;13.610;2023-02-08T14:13:26;0.00;87.30
40287;DHT22;25998;46.604;13.610;2023-02-08T14:16:43;0.10;88.10
40287;DHT22;25998;46.604;13.610;2023-02-08T14:20:04;-0.10;87.60
40287;DHT22;25998;46.604;13.610;2023-02-08T14:23:22;-0.10;87.70
40287;DHT22;25998;46.604;13.610;2023-02-08T14:26:36;-0.30;88.00
40287;DHT22;25998;46.604;13.610;2023-02-08T14:33:31;-0.30;88.40
40287;DHT22;25998;46.604;13.610;2023-02-08T14:36:43;-0.30;87.60
40287;DHT22;25998;46.604;13.610;2023-02-08T14:43:40;-0.40;87.90
40287;DHT22;25998;46.604;13.610;2023-02-08T14:46:52;-0.50;89.60
40287;DHT22;25998;46.604;13.610;2023-02-08T14:50:18;-0.60;89.30
40287;DHT22;25998;46.604;13.610;2023-02-08T14:53:43;-0.50;90.00
40287;DHT22;25998;46.604;13.610;2023-02-08T14:56:59;-0.60;89.20
40287;DHT22;25998;46.604;13.610;2023-02-08T15:00:23;-0.70;89.40
40287;DHT22;25998;46.604;13.610;2023-02-08T15:03:37;-0.50;89.20
40287;DHT22;25998;46.604;13.610;2023-02-08T15:10:32;-0.40;89.30
40287;DHT22;25998;46.604;13.610;2023-02-08T15:13:48;-0.60;88.50
40287;DHT22;25998;46.604;13.610;2023-02-08T15:17:00;-0.90;89.30
40287;DHT22;25998;46.604;13.610;2023-02-08T15:20:23;-0.70;89.90
40287;DHT22;25998;46.604;13.610;2023-02-08T15:23:35;-1.00;90.00
40287;DHT22;25998;46.604;13.610;2023-02-08T15:26:48;-1.20;89.30
40287;DHT22;25998;46.604;13.610;2023-02-08T15:30:00;-1.10;90.10
40287;DHT22;25998;46.604;13.610;2023-02-08T15:33:15;-0.90;90.10
40287;DHT22;25998;46.604;13.610;2023-02-08T15:36:32;-0.80;90.20
40287;DHT22;25998;46.604;13.610;2023-02-08T15:39:43;-0.90;89.10
40287;DHT22;25998;46.604;13.610;2023-02-08T15:43:02;-0.90;89.60
40287;DHT22;25998;46.604;13.610;2023-02-08T15:46:25;-0.80;90.00
40287;DHT22;25998;46.604;13.610;2023-02-08T15:49:39;-0.90;90.80
40287;DHT22;25998;46.604;13.610;2023-02-08T15:52:57;-0.90;89.00
40287;DHT22;25998;46.604;13.610;2023-02-08T15:56:09;-1.00;90.10
40287;DHT22;25998;46.604;13.610;2023-02-08T15:59:25;-1.00;90.10
40287;DHT22;25998;46.604;13.610;2023-02-08T16:02:37;-1.20;90.00
40287;DHT22;25998;46.604;13.610;2023-02-08T16:05:54;-1.20;90.00
40287;DHT22;25998;46.604;13.610;2023-02-08T16:09:06;-1.00;90.30
40287;DHT22;25998;46.604;13.610;2023-02-08T16:12:22;-0.80;90.50
40287;DHT22;25998;46.604;13.610;2023-02-08T16:15:48;-0.80;89.20
40287;DHT22;25998;46.604;13.610;2023-02-08T16:19:04;-1.00;90.20
40287;DHT22;25998;46.604;13.610;2023-02-08T16:25:43;-1.40;90.00
40287;DHT22;25998;46.604;13.610;2023-02-08T16:29:00;-1.30;90.00
40287;DHT22;25998;46.604;13.610;2023-02-08T16:32:34;-1.20;90.40
40287;DHT22;25998;46.604;13.610;2023-02-08T16:35:48;-1.30;90.40
40287;DHT22;25998;46.604;13.610;2023-02-08T16:42:31;-1.00;90.30
40287;DHT22;25998;46.604;13.610;2023-02-08T16:45:43;-1.10;90.10
40287;DHT22;25998;46.604;13.610;2023-02-08T16:48:55;-1.10;90.40
40287;DHT22;25998;46.604;13.610;2023-02-08T16:52:09;-1.00;91.10
40287;DHT22;25998;46.604;13.610;2023-02-08T16:55:24;-0.90;92.10
40287;DHT22;25998;46.604;13.610;2023-02-08T16:58:36;-0.80;91.40
40287;DHT22;25998;46.604;13.610;2023-02-08T17:01:47;-0.80;90.90
40287;DHT22;25998;46.604;13.610;2023-02-08T17:04:59;-0.80;91.00
40287;DHT22;25998;46.604;13.610;2023-02-08T17:08:19;-0.80;90.80
40287;DHT22;25998;46.604;13.610;2023-02-08T17:11:31;-0.90;90.40
40287;DHT22;25998;46.604;13.610;2023-02-08T17:14:41;-0.80;90.90
40287;DHT22;25998;46.604;13.610;2023-02-08T17:17:53;-0.90;89.60
40287;DHT22;25998;46.604;13.610;2023-02-08T17:21:04;-1.10;90.20
40287;DHT22;25998;46.604;13.610;2023-02-08T17:24:15;-1.00;90.80
40287;DHT22;25998;46.604;13.610;2023-02-08T17:27:26;-1.10;90.90
40287;DHT22;25998;46.604;13.610;2023-02-08T17:30:39;-1.20;90.60
40287;DHT22;25998;46.604;13.610;2023-02-08T17:33:51;-1.10;90.50
40287;DHT22;25998;46.604;13.610;2023-02-08T17:37:02;-1.10;90.80
40287;DHT22;25998;46.604;13.610;2023-02-08T17:40:13;-1.20;90.70
40287;DHT22;25998;46.604;13.610;2023-02-08T17:43:25;-1.10;90.70
40287;DHT22;25998;46.604;13.610;2023-02-08T17:46:36;-1.20;90.40
40287;DHT22;25998;46.604;13.610;2023-02-08T17:49:47;-1.20;90.70
40287;DHT22;25998;46.604;13.610;2023-02-08T17:52:58;-1.40;91.50
40287;DHT22;25998;46.604;13.610;2023-02-08T17:56:10;-1.40;91.60
40287;DHT22;25998;46.604;13.610;2023-02-08T17:59:22;-1.30;91.80
40287;DHT22;25998;46.604;13.610;2023-02-08T18:02:34;-1.20;91.90
40287;DHT22;25998;46.604;13.610;2023-02-08T18:05:45;-1.10;92.30
40287;DHT22;25998;46.604;13.610;2023-02-08T18:08:56;-1.30;92.40
40287;DHT22;25998;46.604;13.610;2023-02-08T18:12:07;-1.40;91.80
40287;DHT22;25998;46.604;13.610;2023-02-08T18:15:20;-1.30;92.30
40287;DHT22;25998;46.604;13.610;2023-02-08T18:18:31;-1.20;91.70
40287;DHT22;25998;46.604;13.610;2023-02-08T18:21:42;-1.40;92.10
40287;DHT22;25998;46.604;13.610;2023-02-08T18:24:53;-1.30;92.30
40287;DHT22;25998;46.604;13.610;2023-02-08T18:28:04;-1.20;92.10
40287;DHT22;25998;46.604;13.610;2023-02-08T18:31:16;-1.30;91.80
40287;DHT22;25998;46.604;13.610;2023-02-08T18:34:29;-1.30;92.10
40287;DHT22;25998;46.604;13.610;2023-02-08T18:37:40;-1.30;92.20
40287;DHT22;25998;46.604;13.610;2023-02-08T18:40:51;-1.40;91.70
40287;DHT22;25998;46.604;13.610;2023-02-08T18:44:01;-1.40;92.80
40287;DHT22;25998;46.604;13.610;2023-02-08T18:47:12;-1.30;92.10
40287;DHT22;25998;46.604;13.610;2023-02-08T18:50:23;-1.30;91.50
40287;DHT22;25998;46.604;13.610;2023-02-08T18:53:36;-1.10;91.70
40287;DHT22;25998;46.604;13.610;2023-02-08T18:56:50;-1.30;91.50
40287;DHT22;25998;46.604;13.610;2023-02-08T19:00:03;-1.50;92.20
40287;DHT22;25998;46.604;13.610;2023-02-08T19:03:14;-1.50;92.90
40287;DHT22;25998;46.604;13.610;2023-02-08T19:06:28;-1.40;92.30
40287;DHT22;25998;46.604;13.610;2023-02-08T19:09:41;-1.50;92.70
40287;DHT22;25998;46.604;13.610;2023-02-08T19:12:53;-1.50;92.50
40287;DHT22;25998;46.604;13.610;2023-02-08T19:16:08;-1.60;92.10
40287;DHT22;25998;46.604;13.610;2023-02-08T19:19:19;-1.60;92.40
40287;DHT22;25998;46.604;13.610;2023-02-08T19:22:30;-1.60;92.10
40287;DHT22;25998;46.604;13.610;2023-02-08T19:25:41;-1.60;92.70
40287;DHT22;25998;46.604;13.610;2023-02-08T19:28:53;-1.50;93.10
40287;DHT22;25998;46.604;13.610;2023-02-08T19:32:04;-1.30;93.00
40287;DHT22;25998;46.604;13.610;2023-02-08T19:35:17;-1.40;92.10
40287;DHT22;25998;46.604;13.610;2023-02-08T19:38:29;-1.40;92.50
40287;DHT22;25998;46.604;13.610;2023-02-08T19:41:40;-1.40;92.60
40287;DHT22;25998;46.604;13.610;2023-02-08T19:44:51;-1.30;92.60
40287;DHT22;25998;46.604;13.610;2023-02-08T19:48:01;-1.20;92.30
40287;DHT22;25998;46.604;13.610;2023-02-08T19:51:12;-1.20;92.10
40287;DHT22;25998;46.604;13.610;2023-02-08T19:54:23;-1.30;92.40
40287;DHT22;25998;46.604;13.610;2023-02-08T19:57:38;-1.30;92.30
40287;DHT22;25998;46.604;13.610;2023-02-08T20:00:50;-1.40;92.50
40287;DHT22;25998;46.604;13.610;2023-02-08T20:04:01;-1.50;92.50
40287;DHT22;25998;46.604;13.610;2023-02-08T20:07:12;-1.70;92.70
40287;DHT22;25998;46.604;13.610;2023-02-08T20:10:23;-1.70;92.30
40287;DHT22;25998;46.604;13.610;2023-02-08T20:13:33;-1.50;92.70
40287;DHT22;25998;46.604;13.610;2023-02-08T20:16:44;-1.40;92.30
40287;DHT22;25998;46.604;13.610;2023-02-08T20:19:55;-1.50;92.40
40287;DHT22;25998;46.604;13.610;2023-02-08T20:23:07;-1.50;92.90
40287;DHT22;25998;46.604;13.610;2023-02-08T20:26:26;-1.30;93.10
40287;DHT22;25998;46.604;13.610;2023-02-08T20:29:38;-1.30;92.40
40287;DHT22;25998;46.604;13.610;2023-02-08T20:32:48;-1.40;92.60
40287;DHT22;25998;46.604;13.610;2023-02-08T20:36:08;-1.30;92.30
40287;DHT22;25998;46.604;13.610;2023-02-08T20:39:19;-1.20;92.80
40287;DHT22;25998;46.604;13.610;2023-02-08T20:42:30;-1.30;92.60
40287;DHT22;25998;46.604;13.610;2023-02-08T20:45:41;-1.30;92.70
40287;DHT22;25998;46.604;13.610;2023-02-08T20:48:54;-1.40;92.70
40287;DHT22;25998;46.604;13.610;2023-02-08T20:52:05;-1.40;92.80
40287;DHT22;25998;46.604;13.610;2023-02-08T20:55:16;-1.50;92.60
40287;DHT22;25998;46.604;13.610;2023-02-08T20:58:27;-1.40;92.90
40287;DHT22;25998;46.604;13.610;2023-02-08T21:01:37;-1.50;92.60
40287;DHT22;25998;46.604;13.610;2023-02-08T21:04:48;-1.40;93.10
40287;DHT22;25998;46.604;13.610;2023-02-08T21:07:59;-1.50;92.80
40287;DHT22;25998;46.604;13.610;2023-02-08T21:11:10;-1.60;93.00
40287;DHT22;25998;46.604;13.610;2023-02-08T21:14:21;-1.60;93.60
40287;DHT22;25998;46.604;13.610;2023-02-08T21:17:32;-1.60;93.40
40287;DHT22;25998;46.604;13.610;2023-02-08T21:20:43;-1.50;93.20
40287;DHT22;25998;46.604;13.610;2023-02-08T21:23:54;-1.60;93.20
40287;DHT22;25998;46.604;13.610;2023-02-08T21:27:07;-1.60;92.90
40287;DHT22;25998;46.604;13.610;2023-02-08T21:30:18;-1.60;93.00
40287;DHT22;25998;46.604;13.610;2023-02-08T21:33:29;-1.80;93.40
40287;DHT22;25998;46.604;13.610;2023-02-08T21:36:40;-1.60;93.80
40287;DHT22;25998;46.604;13.610;2023-02-08T21:39:50;-1.60;93.50
40287;DHT22;25998;46.604;13.610;2023-02-08T21:43:01;-1.60;93.60
40287;DHT22;25998;46.604;13.610;2023-02-08T21:46:13;-1.50;93.30
40287;DHT22;25998;46.604;13.610;2023-02-08T21:49:24;-1.60;93.70
40287;DHT22;25998;46.604;13.610;2023-02-08T21:52:53;-1.60;93.40
40287;DHT22;25998;46.604;13.610;2023-02-08T21:56:23;-1.50;93.50